Дата Пункты Температура Давл., мм. Влажн., % Ветер Погодные явления
Воздуха Воды Направл. Скорость
06.10.17 09:00 Одесса 17.0 16.0 749 61 Ю-З 3 09 часов
06.10.17 06:00 Одесса 16.0 16.0 748 63 З 3 06 часов
06.10.17 03:00 Одесса 16.0 16.0 750 56 Ю-З 3 03 часа
05.10.17 09:00 Одесса 16.0 16.0 753 55 Ю-З 2 21 час
05.10.17 06:00 Одесса 17.0 16.0 754 74 Ю-З 2 18 часов
05.10.17 03:00 Одесса 18.0 16.0 756 69 Ю-З 2 15 часов
05.10.17 12:00 Одесса 18.0 16.0 758 55 Ю-З 2 12 часов
05.10.17 09:00 Одесса 13.0 16.0 759 78 З 1 09 часов
05.10.17 06:00 Одесса 9.0 16.0 760 93 З 1 06 часов
05.10.17 03:00 Одесса 10.0 16.0 761 89 З 2 03 часа
04.10.17 09:00 Одесса 16.0 15.0 762 78 Ю-З 3 21 час
04.10.17 06:00 Одесса 16.0 16.0 763 74 Ю-З 3 18 часов
04.10.17 03:00 Одесса 18.0 16.0 763 63 Ю-З 4 15 часов
04.10.17 12:00 Одесса 17.0 16.0 764 68 Ю-З 3 12 часов
04.10.17 09:00 Одесса 16.0 16.0 764 65 Ю 4 09 часов
04.10.17 06:00 Одесса 13.0 16.0 764 67 Ю-З 2 06 часов
04.10.17 03:00 Одесса 14.0 16.0 765 63 Ю-З 3 03 часа
03.10.17 09:00 Одесса 14.0 16.0 765 60 Ю 5 21 час
03.10.17 06:00 Одесса 14.0 16.0 765 64 Ю 5 18 часов
03.10.17 03:00 Одесса 14.0 16.0 766 64 Ю 4 15 часов
Количество строк
1 2 3 4 5 6 7 8 9 10
Page 5 of 284